createdAt,value
2018-08-31T00:00:29.548Z,101692.81
2018-08-31T00:02:58.243Z,101700.81
2018-08-31T00:05:48.215Z,101707.09
2018-08-31T00:09:28.334Z,101709.28
2018-08-31T00:12:39.348Z,101704.90
2018-08-31T00:15:08.451Z,101706.30
2018-08-31T00:17:38.249Z,101708.19
2018-08-31T00:20:06.922Z,101707.22
2018-08-31T00:22:35.502Z,101708.88
2018-08-31T00:25:24.269Z,101704.17
2018-08-31T00:28:04.077Z,101700.73
2018-08-31T00:30:43.823Z,101697.08
2018-08-31T00:33:29.640Z,101697.16
2018-08-31T00:38:14.246Z,101702.11
2018-08-31T00:45:00.900Z,101702.70
2018-08-31T00:47:29.571Z,101713.20
2018-08-31T00:49:58.157Z,101713.76
2018-08-31T00:52:26.740Z,101714.87
2018-08-31T00:54:55.336Z,101714.80
2018-08-31T00:57:23.934Z,101714.70
2018-08-31T00:59:52.530Z,101714.25
2018-08-31T01:02:21.131Z,101714.97
2018-08-31T01:04:49.714Z,101718.23
2018-08-31T01:07:18.305Z,101717.22
2018-08-31T01:09:46.865Z,101720.48
2018-08-31T01:12:15.445Z,101723.39
2018-08-31T01:14:44.020Z,101727.44
2018-08-31T01:17:12.628Z,101720.12
2018-08-31T01:19:41.230Z,101720.21
2018-08-31T01:22:09.873Z,101712.58
2018-08-31T01:24:38.475Z,101713.16
2018-08-31T01:27:07.089Z,101717.32
2018-08-31T01:29:35.666Z,101718.44
2018-08-31T01:32:04.422Z,101716.28
2018-08-31T01:34:33.010Z,101719.22
2018-08-31T01:37:01.623Z,101728.13
2018-08-31T01:39:30.250Z,101720.66
2018-08-31T01:41:58.841Z,101727.55
2018-08-31T01:44:27.446Z,101726.59
2018-08-31T01:46:56.090Z,101731.06
2018-08-31T01:49:24.706Z,101728.37
2018-08-31T01:51:53.344Z,101726.89
2018-08-31T01:54:21.999Z,101728.10
2018-08-31T01:56:50.625Z,101725.53
2018-08-31T01:59:19.377Z,101730.20
2018-08-31T02:01:48.091Z,101734.34
2018-08-31T02:04:16.740Z,101736.28
2018-08-31T02:06:45.370Z,101740.95
2018-08-31T02:09:17.921Z,101739.09
2018-08-31T02:11:46.960Z,101740.83
2018-08-31T02:14:15.555Z,101742.32
2018-08-31T02:16:44.129Z,101740.99
2018-08-31T02:19:12.775Z,101737.73
2018-08-31T02:21:41.405Z,101741.52
2018-08-31T02:24:10.148Z,101736.57
2018-08-31T02:26:38.749Z,101732.15
2018-08-31T02:29:07.398Z,101734.92
2018-08-31T02:31:36.031Z,101737.17
2018-08-31T02:34:04.650Z,101730.70
2018-08-31T02:36:33.241Z,101734.80
2018-08-31T02:39:01.913Z,101730.22
2018-08-31T02:41:30.503Z,101732.63
2018-08-31T02:43:59.110Z,101732.63
2018-08-31T02:46:27.714Z,101737.22
2018-08-31T02:48:56.336Z,101738.94
2018-08-31T02:51:24.951Z,101741.51
2018-08-31T02:53:53.560Z,101737.41
2018-08-31T02:56:22.161Z,101740.14
2018-08-31T02:58:50.784Z,101738.78
2018-08-31T03:01:19.381Z,101735.72
2018-08-31T03:03:48.000Z,101736.08
2018-08-31T03:06:16.593Z,101729.61
2018-08-31T03:08:45.233Z,101727.08
2018-08-31T03:11:13.878Z,101735.44
2018-08-31T03:13:42.470Z,101737.00
2018-08-31T03:16:11.051Z,101738.72
2018-08-31T03:18:39.679Z,101739.77
2018-08-31T03:21:08.347Z,101742.50
2018-08-31T03:23:36.957Z,101737.20
2018-08-31T03:26:05.580Z,101741.65
2018-08-31T03:28:34.177Z,101743.89
2018-08-31T03:31:02.833Z,101747.86
2018-08-31T03:33:31.423Z,101744.77
2018-08-31T03:36:00.102Z,101741.72
2018-08-31T03:38:28.712Z,101744.80
2018-08-31T03:40:57.316Z,101745.33
2018-08-31T03:43:25.900Z,101743.80
2018-08-31T03:45:54.514Z,101746.20
2018-08-31T03:48:23.105Z,101747.92
2018-08-31T03:50:51.717Z,101745.38
2018-08-31T03:53:20.335Z,101739.92
2018-08-31T03:55:48.939Z,101741.45
2018-08-31T03:58:17.563Z,101748.11
2018-08-31T04:00:46.177Z,101751.36
2018-08-31T04:03:14.793Z,101752.02
2018-08-31T04:05:43.433Z,101752.51
2018-08-31T04:08:12.029Z,101748.41
2018-08-31T04:10:40.631Z,101751.50
2018-08-31T04:13:09.244Z,101754.06
2018-08-31T04:15:37.848Z,101756.96
2018-08-31T04:18:06.488Z,101756.96
2018-08-31T04:20:35.122Z,101757.45
2018-08-31T04:23:03.709Z,101760.18
2018-08-31T04:25:32.319Z,101756.60
2018-08-31T04:28:01.023Z,101760.38
2018-08-31T04:30:29.787Z,101762.26
2018-08-31T04:32:58.375Z,101768.05
2018-08-31T04:35:26.982Z,101768.38
2018-08-31T04:37:55.558Z,101778.29
2018-08-31T04:40:24.205Z,101769.73
2018-08-31T04:42:52.911Z,101774.03
2018-08-31T04:45:21.521Z,101772.34
2018-08-31T04:47:50.102Z,101772.50
2018-08-31T04:50:18.771Z,101773.18
2018-08-31T04:52:47.338Z,101777.08
2018-08-31T04:55:15.945Z,101784.08
2018-08-31T04:57:44.528Z,101774.52
2018-08-31T05:00:13.118Z,101772.09
2018-08-31T05:02:41.717Z,101773.06
2018-08-31T05:05:10.337Z,101773.27
2018-08-31T05:07:38.921Z,101778.92
2018-08-31T05:10:07.533Z,101777.19
2018-08-31T05:12:36.136Z,101781.97
2018-08-31T05:15:04.968Z,101772.74
2018-08-31T05:17:33.549Z,101776.28
2018-08-31T05:20:02.149Z,101784.97
2018-08-31T05:22:30.758Z,101787.51
2018-08-31T05:24:59.364Z,101780.45
2018-08-31T05:27:28.001Z,101786.76
2018-08-31T05:29:56.612Z,101788.25
2018-08-31T05:32:25.233Z,101786.36
2018-08-31T05:34:53.825Z,101782.71
2018-08-31T05:37:22.431Z,101783.97
2018-08-31T05:39:51.020Z,101781.95
2018-08-31T05:42:19.627Z,101790.50
2018-08-31T05:44:48.204Z,101790.25
2018-08-31T05:47:16.844Z,101793.22
2018-08-31T05:49:45.436Z,101802.05
2018-08-31T05:52:14.108Z,101804.73
2018-08-31T05:54:42.700Z,101801.27
2018-08-31T05:57:11.313Z,101795.58
2018-08-31T05:59:39.896Z,101797.02
2018-08-31T06:02:08.613Z,101795.58
2018-08-31T06:04:37.529Z,101803.70
2018-08-31T06:07:06.169Z,101799.87
2018-08-31T06:09:34.754Z,101795.44
2018-08-31T06:12:03.426Z,101796.45
2018-08-31T06:14:32.001Z,101804.14
2018-08-31T06:17:00.619Z,101802.53
2018-08-31T06:19:29.203Z,101805.88
2018-08-31T06:21:57.800Z,101808.48
2018-08-31T06:24:26.390Z,101815.06
2018-08-31T06:26:55.121Z,101810.92
2018-08-31T06:29:23.717Z,101814.62
2018-08-31T06:31:52.305Z,101815.22
2018-08-31T06:34:20.933Z,101812.61
2018-08-31T06:36:49.553Z,101806.98
2018-08-31T06:39:18.130Z,101814.75
2018-08-31T06:41:46.761Z,101812.92
2018-08-31T06:44:15.358Z,101815.52
2018-08-31T06:46:43.958Z,101823.73
2018-08-31T06:49:12.563Z,101813.48
2018-08-31T06:51:41.193Z,101819.61
2018-08-31T06:54:09.829Z,101822.02
2018-08-31T06:56:38.433Z,101818.66
2018-08-31T06:59:07.406Z,101822.84
2018-08-31T07:01:36.068Z,101814.78
2018-08-31T07:04:04.714Z,101814.61
2018-08-31T07:06:33.306Z,101814.91
2018-08-31T07:09:01.900Z,101817.09
2018-08-31T07:11:30.497Z,101819.06
2018-08-31T07:13:59.099Z,101818.56
2018-08-31T07:16:27.674Z,101822.25
2018-08-31T07:18:56.251Z,101816.14
2018-08-31T07:21:24.898Z,101814.65
2018-08-31T07:23:53.719Z,101810.74
2018-08-31T07:26:22.364Z,101812.58
2018-08-31T07:28:50.908Z,101816.43
2018-08-31T07:31:19.510Z,101821.08
2018-08-31T07:33:48.223Z,101820.13
2018-08-31T07:36:16.905Z,101828.21
2018-08-31T07:38:45.500Z,101825.23
2018-08-31T07:41:14.098Z,101813.19
2018-08-31T07:43:42.723Z,101824.41
2018-08-31T07:46:11.313Z,101824.21
2018-08-31T07:48:39.938Z,101820.37
2018-08-31T07:51:08.566Z,101821.73
2018-08-31T07:53:37.188Z,101818.45
2018-08-31T07:56:05.902Z,101819.29
2018-08-31T07:58:34.514Z,101824.36
2018-08-31T08:01:03.089Z,101831.77
2018-08-31T08:03:31.700Z,101832.41
2018-08-31T08:06:00.286Z,101823.09
2018-08-31T08:08:28.897Z,101834.41
2018-08-31T08:10:57.497Z,101833.45
2018-08-31T08:13:26.106Z,101828.98
2018-08-31T08:15:54.725Z,101834.55
2018-08-31T08:18:23.337Z,101838.03
2018-08-31T08:20:51.945Z,101841.13
2018-08-31T08:23:20.613Z,101837.66
2018-08-31T08:25:49.208Z,101832.54
2018-08-31T08:28:17.826Z,101829.48
2018-08-31T08:30:46.445Z,101834.66
2018-08-31T08:33:15.081Z,101839.91
2018-08-31T08:35:43.666Z,101840.44
2018-08-31T08:38:12.292Z,101853.83
2018-08-31T08:40:40.893Z,101840.25
2018-08-31T08:43:09.519Z,101844.19
2018-08-31T08:45:38.120Z,101841.52
2018-08-31T08:48:06.795Z,101848.78
2018-08-31T08:50:35.422Z,101851.97
2018-08-31T08:53:04.236Z,101855.04
2018-08-31T08:55:32.868Z,101859.97
2018-08-31T08:58:01.488Z,101851.04
2018-08-31T09:00:30.109Z,101863.20
2018-08-31T09:02:58.728Z,101856.25
2018-08-31T09:05:27.360Z,101867.23
2018-08-31T09:07:55.979Z,101865.48
2018-08-31T09:10:24.576Z,101858.47
2018-08-31T09:12:53.185Z,101856.17
2018-08-31T09:15:21.786Z,101851.38
2018-08-31T09:17:51.621Z,101862.08
2018-08-31T09:20:20.287Z,101867.61
2018-08-31T09:22:48.893Z,101860.95
2018-08-31T09:25:17.475Z,101859.91
2018-08-31T09:27:46.096Z,101869.25
2018-08-31T09:30:19.783Z,101867.77
2018-08-31T09:32:48.426Z,101867.62
2018-08-31T09:35:17.152Z,101861.41
2018-08-31T09:37:45.774Z,101870.13
2018-08-31T09:40:14.360Z,101871.22
2018-08-31T09:42:42.921Z,101867.66
2018-08-31T09:45:11.516Z,101869.75
2018-08-31T09:47:40.081Z,101875.47
2018-08-31T09:50:08.836Z,101862.66
2018-08-31T09:52:37.410Z,101867.23
2018-08-31T09:55:06.369Z,101861.16
2018-08-31T09:57:35.074Z,101861.91
2018-08-31T10:00:03.620Z,101862.77
2018-08-31T10:02:38.237Z,101863.13
2018-08-31T10:05:07.831Z,101859.57
2018-08-31T10:07:36.453Z,101854.00
2018-08-31T10:10:05.319Z,101865.94
2018-08-31T10:12:33.920Z,101862.36
2018-08-31T10:15:02.503Z,101867.80
2018-08-31T10:17:31.133Z,101863.80
2018-08-31T10:19:59.728Z,101863.01
2018-08-31T10:22:28.293Z,101859.51
2018-08-31T10:24:56.892Z,101866.33
2018-08-31T10:27:25.453Z,101871.64
2018-08-31T10:29:54.046Z,101867.80
2018-08-31T10:32:22.637Z,101873.05
2018-08-31T10:34:51.235Z,101876.87
2018-08-31T10:37:19.813Z,101871.59
2018-08-31T10:39:48.423Z,101872.73
2018-08-31T10:42:16.986Z,101872.59
2018-08-31T10:44:45.570Z,101857.80
2018-08-31T10:47:14.145Z,101865.15
2018-08-31T10:49:42.724Z,101864.66
2018-08-31T10:52:11.349Z,101863.14
2018-08-31T10:54:40.001Z,101863.58
2018-08-31T10:57:08.587Z,101869.56
2018-08-31T10:59:37.202Z,101862.19
2018-08-31T11:02:05.814Z,101862.25
2018-08-31T11:04:34.524Z,101864.05
2018-08-31T11:07:03.143Z,101858.13
2018-08-31T11:09:31.751Z,101857.68
2018-08-31T11:12:00.325Z,101853.73
2018-08-31T11:14:28.900Z,101858.13
2018-08-31T11:16:57.467Z,101850.52
2018-08-31T11:19:26.066Z,101851.38
2018-08-31T11:21:54.631Z,101856.78
2018-08-31T11:24:23.242Z,101849.55
2018-08-31T11:26:51.832Z,101847.75
2018-08-31T11:29:20.436Z,101849.84
2018-08-31T11:31:49.010Z,101853.70
2018-08-31T11:34:17.643Z,101856.34
2018-08-31T11:36:46.227Z,101859.51
2018-08-31T11:39:14.824Z,101861.89
2018-08-31T11:41:43.427Z,101862.28
2018-08-31T11:44:12.024Z,101858.48
2018-08-31T11:46:40.620Z,101859.73
2018-08-31T11:49:09.226Z,101856.70
2018-08-31T11:51:37.823Z,101857.07
2018-08-31T11:54:06.464Z,101860.23
2018-08-31T11:56:35.080Z,101853.42
2018-08-31T11:59:03.686Z,101862.77
2018-08-31T12:01:32.431Z,101856.02
2018-08-31T12:04:01.145Z,101856.06
2018-08-31T12:06:29.781Z,101856.58
2018-08-31T12:08:58.363Z,101856.48
2018-08-31T12:11:26.968Z,101847.60
2018-08-31T12:13:55.869Z,101853.44
2018-08-31T12:16:24.465Z,101854.03
2018-08-31T12:18:53.066Z,101855.64
2018-08-31T12:21:21.658Z,101856.47
2018-08-31T12:23:50.258Z,101853.59
2018-08-31T12:26:18.876Z,101851.98
2018-08-31T12:28:48.275Z,101854.09
2018-08-31T12:31:16.942Z,101854.80
2018-08-31T12:33:45.514Z,101856.98
2018-08-31T12:36:14.121Z,101856.75
2018-08-31T12:38:42.748Z,101856.79
2018-08-31T12:41:11.356Z,101854.28
2018-08-31T12:43:39.995Z,101846.22
2018-08-31T12:46:08.605Z,101847.61
2018-08-31T12:48:37.227Z,101839.14
2018-08-31T12:51:05.837Z,101843.42
2018-08-31T12:53:34.425Z,101839.70
2018-08-31T12:56:03.026Z,101840.20
2018-08-31T12:58:31.638Z,101840.27
2018-08-31T13:01:00.260Z,101844.61
2018-08-31T13:03:28.821Z,101850.95
2018-08-31T13:05:57.420Z,101840.48
2018-08-31T13:08:26.010Z,101848.33
2018-08-31T13:10:54.610Z,101850.27
2018-08-31T13:13:23.431Z,101859.63
2018-08-31T13:15:52.021Z,101857.50
2018-08-31T13:18:20.626Z,101847.64
2018-08-31T13:20:49.271Z,101846.77
2018-08-31T13:23:17.923Z,101850.95
2018-08-31T13:25:46.517Z,101854.30
2018-08-31T13:28:15.136Z,101846.63
2018-08-31T13:30:43.892Z,101851.56
2018-08-31T13:33:12.487Z,101844.65
2018-08-31T13:35:41.099Z,101841.32
2018-08-31T13:38:09.726Z,101846.84
2018-08-31T13:40:38.333Z,101846.53
2018-08-31T13:43:07.081Z,101844.05
2018-08-31T13:45:35.698Z,101843.91
2018-08-31T13:48:04.290Z,101845.37
2018-08-31T13:50:32.871Z,101851.03
2018-08-31T13:53:01.464Z,101847.41
2018-08-31T13:55:30.039Z,101850.04
2018-08-31T13:57:58.645Z,101852.85
2018-08-31T14:00:27.201Z,101850.23
2018-08-31T14:02:55.805Z,101855.50
2018-08-31T14:05:24.395Z,101858.86
2018-08-31T14:07:52.989Z,101859.63
2018-08-31T14:10:21.572Z,101854.27
2018-08-31T14:12:50.242Z,101853.17
2018-08-31T14:15:18.788Z,101849.31
2018-08-31T14:17:47.382Z,101843.77
2018-08-31T14:20:16.006Z,101850.55
2018-08-31T14:22:44.624Z,101844.78
2018-08-31T14:25:13.212Z,101850.13
2018-08-31T14:27:41.785Z,101851.07
2018-08-31T14:30:10.379Z,101844.86
2018-08-31T14:32:38.959Z,101840.55
2018-08-31T14:35:07.528Z,101844.77
2018-08-31T14:37:36.120Z,101840.81
2018-08-31T14:40:04.892Z,101851.03
2018-08-31T14:42:33.457Z,101850.87
2018-08-31T14:45:02.071Z,101848.25
2018-08-31T14:47:30.725Z,101849.29
2018-08-31T14:49:59.378Z,101853.48
2018-08-31T14:52:27.958Z,101855.33
2018-08-31T14:54:56.512Z,101853.37
2018-08-31T14:57:25.126Z,101856.56
2018-08-31T14:59:53.694Z,101859.08
2018-08-31T15:02:22.292Z,101850.23
2018-08-31T15:04:50.866Z,101843.67
2018-08-31T15:07:19.450Z,101845.06
2018-08-31T15:09:48.162Z,101845.70
2018-08-31T15:12:16.778Z,101848.61
2018-08-31T15:14:45.401Z,101852.44
2018-08-31T15:17:13.958Z,101855.00
2018-08-31T15:19:42.528Z,101852.39
2018-08-31T15:22:11.140Z,101853.66
2018-08-31T15:24:39.739Z,101849.03
2018-08-31T15:27:08.349Z,101848.55
2018-08-31T15:29:36.926Z,101853.17
2018-08-31T15:32:05.628Z,101847.43
2018-08-31T15:34:34.340Z,101850.14
2018-08-31T15:37:02.920Z,101856.42
2018-08-31T15:39:31.533Z,101856.55
2018-08-31T15:42:00.121Z,101856.09
2018-08-31T15:44:28.761Z,101845.11
2018-08-31T15:46:57.356Z,101848.45
2018-08-31T15:49:26.006Z,101847.50
2018-08-31T15:51:54.580Z,101852.94
2018-08-31T15:54:23.182Z,101846.30
2018-08-31T15:56:51.759Z,101843.45
2018-08-31T15:59:20.366Z,101844.30
2018-08-31T16:01:48.948Z,101843.45
2018-08-31T16:04:17.563Z,101844.92
2018-08-31T16:06:46.154Z,101846.01
2018-08-31T16:09:14.859Z,101847.62
2018-08-31T16:11:43.407Z,101847.98
2018-08-31T16:14:12.021Z,101841.52
2018-08-31T16:16:40.621Z,101847.59
2018-08-31T16:19:09.266Z,101848.13
2018-08-31T16:21:37.928Z,101854.20
2018-08-31T16:24:06.546Z,101851.23
2018-08-31T16:26:35.165Z,101851.78
2018-08-31T16:29:03.871Z,101856.20
2018-08-31T16:31:32.363Z,101857.23
2018-08-31T16:34:00.955Z,101859.22
2018-08-31T16:36:29.530Z,101858.07
2018-08-31T16:38:58.211Z,101855.97
2018-08-31T16:41:26.776Z,101865.09
2018-08-31T16:43:55.362Z,101865.64
2018-08-31T16:46:23.942Z,101865.20
2018-08-31T16:48:52.569Z,101869.17
2018-08-31T16:51:21.154Z,101869.77
2018-08-31T16:53:49.761Z,101865.89
2018-08-31T16:56:18.339Z,101867.84
2018-08-31T16:58:46.929Z,101866.17
2018-08-31T17:01:15.534Z,101866.81
2018-08-31T17:03:44.193Z,101869.16
2018-08-31T17:06:13.083Z,101870.38
2018-08-31T17:08:41.699Z,101874.00
2018-08-31T17:11:10.287Z,101865.86
2018-08-31T17:13:38.885Z,101869.95
2018-08-31T17:16:07.494Z,101868.13
2018-08-31T17:18:36.074Z,101879.72
2018-08-31T17:21:04.883Z,101870.56
2018-08-31T17:23:33.522Z,101877.34
2018-08-31T17:26:02.118Z,101877.86
2018-08-31T17:28:36.021Z,101879.71
2018-08-31T17:31:09.964Z,101891.06
2018-08-31T17:33:43.805Z,101889.13
2018-08-31T17:36:17.548Z,101885.04
2018-08-31T17:38:46.161Z,101892.53
2018-08-31T17:41:14.765Z,101887.36
2018-08-31T17:43:43.353Z,101901.95
2018-08-31T17:46:12.016Z,101901.76
2018-08-31T17:48:40.631Z,101899.81
2018-08-31T17:51:09.217Z,101910.91
2018-08-31T17:53:37.806Z,101909.80
2018-08-31T17:56:06.487Z,101917.17
2018-08-31T17:58:35.129Z,101924.23
2018-08-31T18:01:03.732Z,101924.83
2018-08-31T18:03:32.332Z,101927.94
2018-08-31T18:06:00.931Z,101936.59
2018-08-31T18:08:29.522Z,101938.11
2018-08-31T18:10:58.150Z,101941.22
2018-08-31T18:13:26.715Z,101941.35
2018-08-31T18:15:55.453Z,101940.71
2018-08-31T18:18:24.009Z,101940.52
2018-08-31T18:20:52.607Z,101938.19
2018-08-31T18:23:21.193Z,101937.56
2018-08-31T18:25:49.845Z,101937.14
2018-08-31T18:28:18.387Z,101933.94
2018-08-31T18:30:46.984Z,101944.22
2018-08-31T18:33:15.546Z,101941.04
2018-08-31T18:35:44.146Z,101943.78
2018-08-31T18:38:12.722Z,101948.75
2018-08-31T18:40:41.310Z,101951.59
2018-08-31T18:43:09.883Z,101952.21
2018-08-31T18:45:38.464Z,101952.30
2018-08-31T18:48:07.054Z,101955.16
2018-08-31T18:50:35.639Z,101955.84
2018-08-31T18:53:04.223Z,101958.57
2018-08-31T18:55:32.869Z,101964.80
2018-08-31T18:58:01.566Z,101960.32
2018-08-31T19:00:30.114Z,101964.81
2018-08-31T19:02:58.713Z,101965.00
2018-08-31T19:05:27.297Z,101962.17
2018-08-31T19:07:55.862Z,101957.60
2018-08-31T19:10:24.442Z,101962.97
2018-08-31T19:12:53.077Z,101962.13
2018-08-31T19:15:21.648Z,101967.71
2018-08-31T19:17:50.230Z,101969.05
2018-08-31T19:20:18.819Z,101975.69
2018-08-31T19:22:47.438Z,101977.98
2018-08-31T19:25:16.087Z,101980.95
2018-08-31T19:27:44.669Z,101986.77
2018-08-31T19:30:13.260Z,101991.41
2018-08-31T19:32:41.834Z,101988.22
2018-08-31T19:35:10.461Z,101994.95
2018-08-31T19:37:39.020Z,101994.38
2018-08-31T19:40:07.621Z,101992.77
2018-08-31T19:42:36.207Z,102001.92
2018-08-31T19:45:05.078Z,101994.92
2018-08-31T19:47:33.633Z,101989.64
2018-08-31T19:50:02.253Z,101991.86
2018-08-31T19:52:30.826Z,101985.66
2018-08-31T19:54:59.693Z,101988.11
2018-08-31T19:57:28.252Z,101994.38
2018-08-31T19:59:56.828Z,101992.29
2018-08-31T20:02:25.481Z,101994.38
2018-08-31T20:04:54.049Z,101996.75
2018-08-31T20:07:22.696Z,102003.55
2018-08-31T20:09:51.719Z,101999.80
2018-08-31T20:12:20.759Z,101998.44
2018-08-31T20:14:49.782Z,102000.13
2018-08-31T20:17:18.827Z,102003.02
2018-08-31T20:19:48.041Z,102004.60
2018-08-31T20:22:17.124Z,102003.27
2018-08-31T20:24:46.339Z,102003.93
2018-08-31T20:27:15.250Z,102011.05
2018-08-31T20:29:44.472Z,102011.57
2018-08-31T20:32:13.423Z,102024.00
2018-08-31T20:34:42.560Z,102013.08
2018-08-31T20:37:11.733Z,102019.28
2018-08-31T20:39:40.605Z,102024.52
2018-08-31T20:42:09.688Z,102027.01
2018-08-31T20:44:38.650Z,102029.81
2018-08-31T20:47:07.836Z,102031.05
2018-08-31T20:49:36.741Z,102036.70
2018-08-31T20:52:06.030Z,102035.36
2018-08-31T20:54:34.974Z,102042.23
2018-08-31T20:57:04.430Z,102038.17
2018-08-31T20:59:33.282Z,102044.25
2018-08-31T21:02:02.086Z,102045.53
2018-08-31T21:04:31.177Z,102043.70
2018-08-31T21:07:00.279Z,102051.45
2018-08-31T21:09:29.374Z,102056.48
2018-08-31T21:11:57.966Z,102053.95
2018-08-31T21:14:26.554Z,102060.61
2018-08-31T21:16:55.173Z,102055.91
2018-08-31T21:19:23.743Z,102055.11
2018-08-31T21:21:52.336Z,102058.22
2018-08-31T21:24:20.936Z,102056.00
2018-08-31T21:26:49.546Z,102065.07
2018-08-31T21:29:18.121Z,102069.02
2018-08-31T21:31:46.712Z,102072.12
2018-08-31T21:34:15.273Z,102070.44
2018-08-31T21:36:43.868Z,102078.58
2018-08-31T21:39:12.450Z,102084.63
2018-08-31T21:41:41.063Z,102078.87
2018-08-31T21:44:09.661Z,102077.91
2018-08-31T21:46:38.286Z,102082.86
2018-08-31T21:49:06.876Z,102078.59
2018-08-31T21:51:35.483Z,102079.92
2018-08-31T21:54:04.072Z,102079.59
2018-08-31T21:56:32.681Z,102076.17
2018-08-31T21:59:01.282Z,102071.21
2018-08-31T22:01:35.148Z,102082.70
2018-08-31T22:04:03.777Z,102076.41
2018-08-31T22:06:32.389Z,102077.13
2018-08-31T22:09:00.971Z,102073.87
2018-08-31T22:11:29.534Z,102077.50
2018-08-31T22:13:58.171Z,102078.22
2018-08-31T22:16:26.785Z,102083.37
2018-08-31T22:18:55.412Z,102082.33
2018-08-31T22:21:24.015Z,102081.48
2018-08-31T22:23:52.632Z,102080.47
2018-08-31T22:26:21.201Z,102083.37
2018-08-31T22:28:49.782Z,102079.75
2018-08-31T22:31:18.377Z,102077.37
2018-08-31T22:33:46.998Z,102079.75
2018-08-31T22:36:15.596Z,102078.34
2018-08-31T22:38:44.184Z,102076.97
2018-08-31T22:41:12.783Z,102084.63
2018-08-31T22:43:46.532Z,102085.51
2018-08-31T22:46:15.106Z,102083.30
2018-08-31T22:48:43.704Z,102078.66
2018-08-31T22:51:12.280Z,102071.78
2018-08-31T22:53:40.884Z,102076.53
2018-08-31T22:56:09.466Z,102079.03
2018-08-31T22:58:38.119Z,102071.82
2018-08-31T23:01:06.760Z,102075.89
2018-08-31T23:03:35.369Z,102077.63
2018-08-31T23:06:03.967Z,102067.11
2018-08-31T23:08:32.560Z,102072.14
2018-08-31T23:11:01.136Z,102074.44
2018-08-31T23:13:29.753Z,102077.77
2018-08-31T23:15:58.473Z,102077.44
2018-08-31T23:18:27.097Z,102075.42
2018-08-31T23:20:55.685Z,102076.30
2018-08-31T23:23:33.275Z,102081.47
2018-08-31T23:26:01.910Z,102087.20
2018-08-31T23:28:30.488Z,102085.50
2018-08-31T23:30:59.059Z,102086.31
2018-08-31T23:33:27.709Z,102084.27
2018-08-31T23:35:56.305Z,102082.90
2018-08-31T23:38:24.932Z,102091.44
2018-08-31T23:40:53.524Z,102087.23
2018-08-31T23:43:22.133Z,102086.02
2018-08-31T23:45:50.719Z,102085.86
2018-08-31T23:48:19.785Z,102091.81
2018-08-31T23:50:48.555Z,102087.91
2018-08-31T23:53:17.159Z,102090.48
2018-08-31T23:55:45.770Z,102088.28
2018-08-31T23:58:14.393Z,102091.73
